createdAt,value
2023-05-22T17:35:06.775Z,19.00
2023-05-22T17:37:35.303Z,18.90
2023-05-22T17:40:03.868Z,18.80
2023-05-22T17:42:38.390Z,18.80
2023-05-22T17:45:07.168Z,18.80
2023-05-22T17:47:36.330Z,18.60
2023-05-22T17:50:13.483Z,18.50
2023-05-22T17:52:41.988Z,18.30
2023-05-22T17:55:10.841Z,18.20
2023-05-22T17:57:45.267Z,18.10
2023-05-22T18:00:14.491Z,17.90
2023-05-22T18:02:44.218Z,17.70
2023-05-22T18:05:20.302Z,17.60
2023-05-22T18:07:48.436Z,17.50
2023-05-22T18:10:16.500Z,17.40
2023-05-22T18:12:51.417Z,17.30
2023-05-22T18:15:19.276Z,17.20
2023-05-22T18:17:47.578Z,17.10
2023-05-22T18:20:24.309Z,17.00
2023-05-22T18:22:52.162Z,17.00
2023-05-22T18:25:20.231Z,17.00
2023-05-22T18:27:54.440Z,16.90
2023-05-22T18:30:22.576Z,16.80
2023-05-22T18:33:11.298Z,16.80
2023-05-22T18:35:40.570Z,16.60
2023-05-22T18:38:08.448Z,16.60
2023-05-22T18:40:43.774Z,16.50
2023-05-22T18:43:11.752Z,16.40
2023-05-22T18:45:39.740Z,16.30
2023-05-22T18:48:14.823Z,16.20
2023-05-22T18:50:44.451Z,16.20
2023-05-22T18:53:12.493Z,16.20
2023-05-22T18:55:48.598Z,16.10
2023-05-22T18:58:16.541Z,16.00
2023-05-22T19:00:45.340Z,15.80
2023-05-22T19:03:20.397Z,15.70
2023-05-22T19:05:49.721Z,15.60
2023-05-22T19:08:18.080Z,15.50
2023-05-22T19:10:52.378Z,15.40
2023-05-22T19:13:20.286Z,15.30
2023-05-22T19:15:48.124Z,15.20
2023-05-22T19:18:22.498Z,15.30
2023-05-22T19:20:51.730Z,15.20
2023-05-22T19:23:19.950Z,15.10
2023-05-22T19:25:55.445Z,15.00
2023-05-22T19:28:23.632Z,15.00
2023-05-22T19:30:51.725Z,15.00
2023-05-22T19:33:28.427Z,14.80
2023-05-22T19:36:06.520Z,14.80
2023-05-22T19:38:41.294Z,14.60
2023-05-22T19:41:09.162Z,14.50
2023-05-22T19:43:37.107Z,14.40
2023-05-22T19:46:12.570Z,14.50
2023-05-22T19:48:40.789Z,14.40
2023-05-22T19:51:10.218Z,14.20
2023-05-22T19:53:45.325Z,14.10
2023-05-22T19:56:13.497Z,14.10
2023-05-22T19:58:43.469Z,14.00
2023-05-22T20:01:18.704Z,13.90
2023-05-22T20:03:46.728Z,13.90
2023-05-22T20:06:16.101Z,13.70
2023-05-22T20:08:50.404Z,13.70
2023-05-22T20:11:18.207Z,13.70
2023-05-22T20:13:46.324Z,13.50
2023-05-22T20:16:22.469Z,13.40
2023-05-22T20:18:51.030Z,13.30
2023-05-22T20:21:20.414Z,13.10
2023-05-22T20:23:55.480Z,13.10
2023-05-22T20:26:23.653Z,13.00
2023-05-22T20:28:52.031Z,12.90
2023-05-22T20:31:26.596Z,12.90
2023-05-22T20:34:01.954Z,12.80
2023-05-22T20:36:39.436Z,12.70
2023-05-22T20:39:07.500Z,12.60
2023-05-22T20:41:35.378Z,12.50
2023-05-22T20:44:10.411Z,12.40
2023-05-22T20:46:38.194Z,12.30
2023-05-22T20:49:06.319Z,12.30
2023-05-22T20:51:43.515Z,12.20
2023-05-22T20:54:11.387Z,12.10
2023-05-22T20:56:39.462Z,12.00
2023-05-22T20:59:14.403Z,11.90
2023-05-22T21:01:42.263Z,11.80
2023-05-22T21:04:10.366Z,11.90
2023-05-22T21:06:47.427Z,11.80
2023-05-22T21:09:15.552Z,11.80
2023-05-22T21:11:43.401Z,11.80
2023-05-22T21:14:18.316Z,11.70
2023-05-22T21:16:46.161Z,11.60
2023-05-22T21:19:14.145Z,11.60
2023-05-22T21:21:50.421Z,11.50
2023-05-22T21:24:19.450Z,11.50
2023-05-22T21:26:47.291Z,11.50
2023-05-22T21:29:21.314Z,11.40
2023-05-22T21:31:49.297Z,11.30
2023-05-22T21:34:37.464Z,11.10
2023-05-22T21:37:06.751Z,11.00
2023-05-22T21:39:34.520Z,11.00
2023-05-22T21:42:09.345Z,10.90
2023-05-22T21:44:37.534Z,10.80
2023-05-22T21:47:05.718Z,10.80
2023-05-22T21:49:40.726Z,10.70
2023-05-22T21:52:10.017Z,10.70
2023-05-22T21:54:37.902Z,10.60
2023-05-22T21:57:19.529Z,10.50
2023-05-22T21:59:48.302Z,10.40
2023-05-22T22:02:16.156Z,10.50
2023-05-22T22:04:50.439Z,10.50
2023-05-22T22:07:19.564Z,10.40
2023-05-22T22:09:47.373Z,10.30
2023-05-22T22:12:21.441Z,10.30
2023-05-22T22:14:49.491Z,10.30
2023-05-22T22:17:17.878Z,10.10
2023-05-22T22:19:52.402Z,9.90
2023-05-22T22:22:22.633Z,9.80
2023-05-22T22:24:50.779Z,9.70
2023-05-22T22:27:26.497Z,9.70
2023-05-22T22:29:54.350Z,9.80
2023-05-22T22:32:22.278Z,9.70
2023-05-22T22:35:00.463Z,9.90
2023-05-22T22:37:29.642Z,10.00
2023-05-22T22:39:57.594Z,10.10
2023-05-22T22:42:33.692Z,10.10
2023-05-22T22:45:01.598Z,10.10
2023-05-22T22:47:29.606Z,10.10
2023-05-22T22:50:04.476Z,10.10
2023-05-22T22:52:33.644Z,10.20
2023-05-22T22:55:02.910Z,10.20
2023-05-22T22:57:37.406Z,10.30
2023-05-22T23:00:06.559Z,10.30
2023-05-22T23:02:34.492Z,10.20
2023-05-22T23:05:09.549Z,10.20
2023-05-22T23:07:39.050Z,10.20
2023-05-22T23:10:08.366Z,10.10
2023-05-22T23:12:42.459Z,10.00
2023-05-22T23:15:13.104Z,9.90
2023-05-22T23:17:41.549Z,9.90
2023-05-22T23:20:16.436Z,10.00
2023-05-22T23:22:46.190Z,10.00
2023-05-22T23:25:14.136Z,9.90
2023-05-22T23:27:48.463Z,9.90
2023-05-22T23:30:17.080Z,9.90
2023-05-22T23:32:44.993Z,9.90
2023-05-22T23:35:19.480Z,10.00
2023-05-22T23:37:55.318Z,10.00
2023-05-22T23:40:29.438Z,10.00
2023-05-22T23:42:57.276Z,10.00
2023-05-22T23:45:25.253Z,10.00
2023-05-22T23:48:00.453Z,10.00
2023-05-22T23:50:28.764Z,10.00
2023-05-22T23:52:57.929Z,9.90
2023-05-22T23:55:32.339Z,9.90
2023-05-22T23:58:00.666Z,9.90
